20TS weather

Bains Private Airport
Bandera, Texas, United States

Public forecast

Using degrees Fahrenheit for public forecast. Weather courtesy of forecast.io.

Closest aviation weather report (METAR) to Bains Private Airport

Closest report is Kerrville Municipal Louis Schreiner Field, 10.1 nm (18.6 km) N. Retrieved 2019/11/18 18:35 UTC (0 seconds ago):

KERV 181835Z AUTO 00000KT 10SM CLR 22/04 A2998 RMK AO2 T02200037

Closest aviation forecast (TAF) to Bains Private Airport

Closest forecast is San Antonio International Airport, 35.3 nm (65.5 km) ESE. Retrieved 2019/11/18 18:39 UTC (0 seconds ago):

TAF KSAT 181737Z 1818/1924 VRB03KT P6SM SKC